Time;durP1;ratioP1;P1;durP2;ratioP2;P2;SDS_P1;SDS_P2;PMS_P1;PMS_P2;Temp;Humidity;BMP_temperature;BMP_pressure;BME280_temperature;BME280_humidity;BME280_pressure;Samples;Min_cycle;Max_cycle;Signal;HPM_P1;HPM_P2
2023/03/14 00:01:23;;;;;;;2.37;1.00;;;;;;;;;;5062556;28;20437;-83
2023/03/14 00:03:49;;;;;;;4.57;1.00;;;;;;;;;;5055406;28;20520;-83
2023/03/14 00:06:15;;;;;;;2.73;1.13;;;;;;;;;;5053626;28;20451;-85
2023/03/14 00:08:42;;;;;;;7.53;1.43;;;;;;;;;;5053585;28;20805;-84
2023/03/14 00:11:10;;;;;;;2.30;1.43;;;;;;;;;;5053246;28;20439;-84
2023/03/14 00:13:36;;;;;;;3.73;1.60;;;;;;;;;;5053443;28;20415;-83
2023/03/14 00:16:02;;;;;;;3.70;0.90;;;;;;;;;;5053442;28;20422;-83
2023/03/14 00:18:28;;;;;;;4.00;1.20;;;;;;;;;;5053271;28;20466;-84
2023/03/14 00:20:54;;;;;;;3.07;1.13;;;;;;;;;;5053457;28;20516;-84
2023/03/14 00:23:20;;;;;;;3.90;0.90;;;;;;;;;;5053294;28;20224;-84
2023/03/14 00:25:46;;;;;;;5.93;1.30;;;;;;;;;;5053035;28;20408;-83
2023/03/14 00:28:12;;;;;;;4.40;1.40;;;;;;;;;;5053325;28;20183;-85
2023/03/14 00:30:38;;;;;;;8.53;1.50;;;;;;;;;;5053200;28;20564;-84
2023/03/14 00:33:04;;;;;;;3.13;1.30;;;;;;;;;;5053247;28;20427;-84
2023/03/14 00:35:30;;;;;;;6.87;2.03;;;;;;;;;;5053131;28;20180;-84
2023/03/14 00:37:56;;;;;;;3.10;1.10;;;;;;;;;;5053124;28;20412;-84
2023/03/14 00:40:22;;;;;;;4.37;1.43;;;;;;;;;;5052984;28;20418;-84
2023/03/14 00:42:48;;;;;;;1.67;1.23;;;;;;;;;;5053038;28;20489;-84
2023/03/14 00:45:14;;;;;;;3.60;1.30;;;;;;;;;;5052912;28;20175;-85
2023/03/14 00:47:39;;;;;;;2.73;1.57;;;;;;;;;;5052225;28;20969;-82
2023/03/14 00:50:06;;;;;;;3.00;1.13;;;;;;;;;;5062771;28;20433;-83
2023/03/14 00:52:32;;;;;;;8.73;2.00;;;;;;;;;;5052507;28;20934;-83
2023/03/14 00:54:58;;;;;;;4.73;1.47;;;;;;;;;;5070703;28;20894;-85
2023/03/14 00:57:24;;;;;;;3.23;0.60;;;;;;;;;;5072998;28;20455;-87
2023/03/14 00:59:51;;;;;;;3.00;1.53;;;;;;;;;;5073053;28;20405;-85
2023/03/14 01:02:17;;;;;;;4.70;1.23;;;;;;;;;;5072824;28;20456;-80
2023/03/14 01:04:43;;;;;;;2.40;0.73;;;;;;;;;;5072870;28;20425;-82
2023/03/14 01:07:09;;;;;;;6.17;1.63;;;;;;;;;;5072808;28;20407;-81
2023/03/14 01:09:35;;;;;;;3.57;0.83;;;;;;;;;;5072852;28;20418;-83
2023/03/14 01:12:01;;;;;;;6.40;1.83;;;;;;;;;;5072517;28;20941;-83
2023/03/14 01:14:27;;;;;;;5.23;1.10;;;;;;;;;;5072775;28;20166;-82
2023/03/14 01:16:53;;;;;;;2.43;1.60;;;;;;;;;;5071322;28;20421;-82
2023/03/14 01:19:19;;;;;;;2.93;0.60;;;;;;;;;;5072704;28;20223;-82
2023/03/14 01:21:44;;;;;;;2.20;1.00;;;;;;;;;;5072657;28;20485;-82
2023/03/14 01:24:11;;;;;;;2.17;0.80;;;;;;;;;;5072646;28;20500;-83
2023/03/14 01:26:37;;;;;;;6.00;1.13;;;;;;;;;;5072282;28;20176;-83
2023/03/14 01:29:03;;;;;;;5.43;1.70;;;;;;;;;;5071080;28;20417;-83
2023/03/14 01:31:29;;;;;;;2.87;0.70;;;;;;;;;;5071025;28;20441;-83
2023/03/14 01:33:55;;;;;;;4.33;1.37;;;;;;;;;;5071198;28;20448;-81
2023/03/14 01:36:21;;;;;;;3.73;0.97;;;;;;;;;;5068649;28;20474;-81
2023/03/14 01:38:47;;;;;;;4.70;1.67;;;;;;;;;;5071211;28;20788;-81
2023/03/14 01:41:16;;;;;;;4.40;1.17;;;;;;;;;;5070959;28;20758;-81
2023/03/14 01:43:41;;;;;;;2.50;1.40;;;;;;;;;;5068232;28;20480;-82
2023/03/14 01:46:08;;;;;;;3.60;1.40;;;;;;;;;;5069903;28;20410;-82
2023/03/14 01:48:53;;;;;;;3.90;0.90;;;;;;;;;;5071185;28;20422;-83
2023/03/14 01:51:22;;;;;;;3.60;1.07;;;;;;;;;;5070653;28;20737;-83
2023/03/14 01:53:49;;;;;;;3.27;1.40;;;;;;;;;;5069794;28;20942;-83
2023/03/14 01:56:16;;;;;;;3.03;0.87;;;;;;;;;;5070828;28;20760;-84
2023/03/14 01:58:43;;;;;;;2.97;1.77;;;;;;;;;;5070563;28;20455;-84
2023/03/14 02:01:09;;;;;;;4.07;1.90;;;;;;;;;;5074768;28;20403;-83
2023/03/14 02:03:39;;;;;;;4.40;1.83;;;;;;;;;;5074749;28;20469;-85
2023/03/14 02:06:06;;;;;;;4.37;1.03;;;;;;;;;;5072598;28;20435;-83
2023/03/14 02:08:33;;;;;;;2.00;0.73;;;;;;;;;;5073691;28;20777;-81
2023/03/14 02:10:59;;;;;;;3.30;1.30;;;;;;;;;;5074311;28;20437;-80
2023/03/14 02:13:26;;;;;;;3.60;1.67;;;;;;;;;;5074494;28;20459;-84
2023/03/14 02:15:52;;;;;;;4.77;1.73;;;;;;;;;;5074633;28;20407;-83
2023/03/14 02:18:18;;;;;;;8.23;1.17;;;;;;;;;;5074153;28;20461;-83
2023/03/14 02:20:58;;;;;;;4.07;1.23;;;;;;;;;;5074516;28;20420;-84
2023/03/14 02:23:29;;;;;;;3.23;0.50;;;;;;;;;;5071869;28;20983;-83
2023/03/14 02:26:01;;;;;;;4.03;1.10;;;;;;;;;;5072737;28;20426;-84
2023/03/14 02:28:27;;;;;;;3.03;0.70;;;;;;;;;;5072440;28;20510;-84
2023/03/14 02:30:53;;;;;;;5.27;1.10;;;;;;;;;;5074260;28;20494;-84
2023/03/14 02:33:20;;;;;;;3.23;1.00;;;;;;;;;;5073919;28;20783;-84
2023/03/14 02:36:01;;;;;;;5.37;1.47;;;;;;;;;;5074280;28;20425;-83
2023/03/14 02:38:40;;;;;;;9.17;1.90;;;;;;;;;;5071707;28;20421;-83
2023/03/14 02:41:07;;;;;;;4.70;1.37;;;;;;;;;;5071656;28;20805;-82
2023/03/14 02:43:33;;;;;;;5.97;1.07;;;;;;;;;;5074053;28;20481;-82
2023/03/14 02:46:00;;;;;;;2.73;1.17;;;;;;;;;;5073912;28;20408;-83
2023/03/14 02:48:35;;;;;;;7.13;2.00;;;;;;;;;;5073946;28;20462;-84
2023/03/14 02:51:02;;;;;;;5.80;1.90;;;;;;;;;;5071157;28;20435;-84
2023/03/14 02:53:31;;;;;;;5.67;1.70;;;;;;;;;;5073855;28;20420;-84
2023/03/14 02:55:57;;;;;;;3.43;1.33;;;;;;;;;;5073501;28;20422;-84
2023/03/14 02:58:22;;;;;;;6.10;1.93;;;;;;;;;;5073738;28;20419;-84
2023/03/14 03:00:48;;;;;;;3.77;1.73;;;;;;;;;;5073863;28;20175;-82
2023/03/14 03:03:14;;;;;;;4.47;1.90;;;;;;;;;;5073996;28;20473;-83
2023/03/14 03:05:42;;;;;;;3.23;1.23;;;;;;;;;;5073741;28;20411;-83
2023/03/14 03:08:08;;;;;;;2.77;0.90;;;;;;;;;;5073771;28;20771;-80
2023/03/14 03:10:34;;;;;;;4.37;0.60;;;;;;;;;;5072768;28;20766;-85
2023/03/14 03:13:00;;;;;;;1.97;0.87;;;;;;;;;;5073757;28;20424;-85
2023/03/14 03:15:26;;;;;;;2.43;0.77;;;;;;;;;;5073611;28;20415;-81
2023/03/14 03:17:52;;;;;;;5.50;1.60;;;;;;;;;;5073675;28;20464;-80
2023/03/14 03:20:18;;;;;;;3.70;1.03;;;;;;;;;;5073731;28;20902;-81
2023/03/14 03:22:44;;;;;;;7.03;1.70;;;;;;;;;;5073520;28;20467;-83
2023/03/14 03:25:10;;;;;;;3.57;1.13;;;;;;;;;;5073429;28;20411;-84
2023/03/14 03:27:37;;;;;;;8.77;1.20;;;;;;;;;;5073643;28;20418;-83
2023/03/14 03:30:04;;;;;;;3.07;0.83;;;;;;;;;;5033299;28;20478;-84
2023/03/14 03:32:30;;;;;;;3.10;1.00;;;;;;;;;;5073763;28;20518;-83
2023/03/14 03:34:56;;;;;;;5.57;1.40;;;;;;;;;;5073675;28;20827;-81
2023/03/14 03:37:21;;;;;;;5.33;1.27;;;;;;;;;;5074336;28;20411;-81
2023/03/14 03:39:47;;;;;;;3.93;0.67;;;;;;;;;;5073180;28;20182;-82
2023/03/14 03:42:13;;;;;;;4.90;1.40;;;;;;;;;;5073101;28;20859;-82
2023/03/14 03:44:39;;;;;;;3.33;1.17;;;;;;;;;;5073526;28;20181;-81
2023/03/14 03:47:05;;;;;;;2.60;0.90;;;;;;;;;;5072881;28;20413;-81
2023/03/14 03:49:32;;;;;;;1.53;0.60;;;;;;;;;;5073281;28;20821;-81
2023/03/14 03:51:58;;;;;;;4.60;1.33;;;;;;;;;;5073296;28;20225;-81
2023/03/14 03:54:24;;;;;;;6.40;1.17;;;;;;;;;;5072813;28;20406;-81
2023/03/14 03:56:50;;;;;;;3.40;1.10;;;;;;;;;;5072978;28;20980;-81
2023/03/14 03:59:16;;;;;;;5.70;1.27;;;;;;;;;;5071179;28;20410;-82
2023/03/14 04:01:41;;;;;;;3.00;0.60;;;;;;;;;;5069666;28;20175;-83
2023/03/14 04:04:07;;;;;;;4.43;1.00;;;;;;;;;;5072534;28;20425;-82
2023/03/14 04:06:33;;;;;;;3.73;1.13;;;;;;;;;;5072461;28;20472;-85
2023/03/14 04:08:59;;;;;;;2.87;1.10;;;;;;;;;;5072500;28;20773;-85
2023/03/14 04:11:25;;;;;;;4.00;1.63;;;;;;;;;;5072066;28;20414;-81
2023/03/14 04:13:51;;;;;;;4.33;0.83;;;;;;;;;;5072276;28;20416;-86
2023/03/14 04:16:21;;;;;;;2.57;0.70;;;;;;;;;;5072169;28;20183;-81
2023/03/14 04:18:47;;;;;;;2.77;1.30;;;;;;;;;;5071939;28;20462;-86
2023/03/14 04:21:14;;;;;;;3.80;1.27;;;;;;;;;;5072147;28;20403;-84
2023/03/14 04:23:40;;;;;;;3.40;1.40;;;;;;;;;;5071991;28;20469;-84
2023/03/14 04:26:06;;;;;;;7.83;1.77;;;;;;;;;;5071672;28;20464;-83
2023/03/14 04:28:32;;;;;;;3.50;1.40;;;;;;;;;;5072024;28;20421;-85
2023/03/14 04:30:58;;;;;;;4.77;1.43;;;;;;;;;;5071977;28;20406;-84
2023/03/14 04:33:24;;;;;;;3.90;1.07;;;;;;;;;;5072134;28;20504;-86
2023/03/14 04:35:53;;;;;;;10.87;3.20;;;;;;;;;;5071889;28;20413;-84
2023/03/14 04:38:19;;;;;;;2.63;1.13;;;;;;;;;;5071712;28;20421;-82
2023/03/14 04:40:45;;;;;;;3.80;1.00;;;;;;;;;;5071425;28;20433;-84
2023/03/14 04:43:11;;;;;;;2.87;1.57;;;;;;;;;;5071849;28;20613;-83
2023/03/14 04:45:38;;;;;;;4.50;1.50;;;;;;;;;;5071684;28;20410;-84
2023/03/14 04:48:04;;;;;;;4.73;1.20;;;;;;;;;;5071933;28;20408;-84
2023/03/14 04:50:29;;;;;;;3.77;1.20;;;;;;;;;;5071910;28;20408;-83
2023/03/14 04:52:55;;;;;;;5.03;1.23;;;;;;;;;;5073113;28;20498;-84
2023/03/14 04:55:21;;;;;;;5.27;1.67;;;;;;;;;;5072787;28;20425;-84
2023/03/14 04:57:47;;;;;;;2.77;0.93;;;;;;;;;;5073125;28;20926;-88
2023/03/14 05:00:13;;;;;;;3.27;1.67;;;;;;;;;;5073065;28;20495;-84
2023/03/14 05:02:39;;;;;;;3.53;1.13;;;;;;;;;;5072971;28;20202;-85
2023/03/14 05:05:05;;;;;;;7.53;1.63;;;;;;;;;;5075559;28;20424;-85
2023/03/14 05:07:31;;;;;;;4.90;1.13;;;;;;;;;;5073161;28;20401;-83
2023/03/14 05:09:57;;;;;;;4.93;0.90;;;;;;;;;;5072791;28;20418;-85
2023/03/14 05:12:23;;;;;;;3.30;1.30;;;;;;;;;;5072981;28;20402;-84
2023/03/14 05:14:49;;;;;;;4.33;1.33;;;;;;;;;;5072791;28;20173;-85
2023/03/14 05:17:15;;;;;;;5.07;1.57;;;;;;;;;;5071619;28;20421;-84
2023/03/14 05:19:41;;;;;;;3.13;0.83;;;;;;;;;;5071415;28;20465;-84
2023/03/14 05:22:07;;;;;;;4.60;1.70;;;;;;;;;;5072777;28;20473;-84
2023/03/14 05:24:33;;;;;;;2.50;1.53;;;;;;;;;;5071204;28;20463;-83
2023/03/14 05:26:59;;;;;;;2.50;1.83;;;;;;;;;;5071443;28;20833;-82
2023/03/14 05:29:25;;;;;;;2.13;1.37;;;;;;;;;;5071514;28;20469;-82
2023/03/14 05:31:51;;;;;;;4.13;1.40;;;;;;;;;;5072782;28;20410;-81
2023/03/14 05:34:17;;;;;;;3.90;1.60;;;;;;;;;;5074488;28;20753;-84
2023/03/14 05:36:47;;;;;;;3.77;1.43;;;;;;;;;;5075459;28;20420;-85
2023/03/14 05:39:16;;;;;;;1.73;0.93;;;;;;;;;;5076269;28;20409;-84
2023/03/14 05:41:42;;;;;;;3.03;1.10;;;;;;;;;;5076500;28;20950;-84
2023/03/14 05:44:08;;;;;;;6.30;2.07;;;;;;;;;;5076452;28;20457;-84
2023/03/14 05:46:34;;;;;;;5.10;1.03;;;;;;;;;;5076361;28;20180;-84
2023/03/14 05:49:00;;;;;;;6.17;1.90;;;;;;;;;;5076417;28;20887;-83
2023/03/14 05:51:30;;;;;;;6.53;2.53;;;;;;;;;;5076162;28;20471;-85
2023/03/14 05:53:56;;;;;;;3.60;1.27;;;;;;;;;;5058229;28;20916;-83
2023/03/14 05:56:21;;;;;;;2.40;1.20;;;;;;;;;;5076248;28;20411;-84
2023/03/14 05:58:47;;;;;;;2.23;1.17;;;;;;;;;;5076308;28;20510;-82
2023/03/14 06:01:13;;;;;;;2.20;1.00;;;;;;;;;;5076152;28;20923;-86
2023/03/14 06:03:39;;;;;;;5.33;2.67;;;;;;;;;;5076002;28;20836;-83
2023/03/14 06:06:05;;;;;;;3.93;1.70;;;;;;;;;;5076046;28;20407;-84
2023/03/14 06:08:31;;;;;;;5.27;1.23;;;;;;;;;;5076045;28;20258;-84
2023/03/14 06:10:58;;;;;;;4.40;1.70;;;;;;;;;;5075589;28;20432;-84
2023/03/14 06:13:24;;;;;;;4.67;1.20;;;;;;;;;;5075949;28;20894;-83
2023/03/14 06:15:50;;;;;;;5.23;1.33;;;;;;;;;;5076266;28;20429;-89
2023/03/14 06:18:16;;;;;;;4.17;1.17;;;;;;;;;;5076405;28;20468;-87
2023/03/14 06:20:42;;;;;;;3.17;1.13;;;;;;;;;;5076386;28;20892;-87
2023/03/14 06:23:08;;;;;;;5.10;1.60;;;;;;;;;;5076132;28;20460;-91
2023/03/14 06:25:35;;;;;;;4.70;1.37;;;;;;;;;;5075853;28;20461;-85
2023/03/14 06:28:01;;;;;;;9.13;1.37;;;;;;;;;;5076006;28;20483;-84
2023/03/14 06:30:27;;;;;;;6.57;1.30;;;;;;;;;;5076396;28;20496;-88
2023/03/14 06:32:53;;;;;;;3.90;1.27;;;;;;;;;;5080390;28;20472;-82
2023/03/14 06:35:18;;;;;;;4.37;1.10;;;;;;;;;;5085318;28;20421;-88
2023/03/14 06:37:45;;;;;;;4.40;1.10;;;;;;;;;;5076285;28;20414;-86
2023/03/14 06:40:12;;;;;;;4.43;1.47;;;;;;;;;;5075991;28;20410;-85
2023/03/14 06:42:38;;;;;;;3.30;1.13;;;;;;;;;;5075602;28;20480;-87
2023/03/14 06:45:04;;;;;;;4.00;1.23;;;;;;;;;;5074354;28;20401;-84
2023/03/14 06:47:30;;;;;;;4.23;1.20;;;;;;;;;;5075132;28;20450;-86
2023/03/14 06:49:56;;;;;;;7.03;1.13;;;;;;;;;;5075319;28;20897;-84
2023/03/14 06:52:22;;;;;;;2.83;1.73;;;;;;;;;;5075211;28;20411;-83
2023/03/14 06:54:48;;;;;;;5.53;1.27;;;;;;;;;;5074851;28;20411;-84
2023/03/14 06:57:14;;;;;;;5.10;1.07;;;;;;;;;;5075053;28;20217;-86
2023/03/14 06:59:41;;;;;;;1.10;0.43;;;;;;;;;;5075237;28;20451;-86
2023/03/14 07:02:11;;;;;;;2.57;0.97;;;;;;;;;;5074920;28;20814;-83
2023/03/14 07:04:37;;;;;;;4.23;1.00;;;;;;;;;;5075063;28;20635;-81
2023/03/14 07:07:03;;;;;;;3.80;1.27;;;;;;;;;;5073646;28;20417;-82
2023/03/14 07:09:30;;;;;;;2.70;0.93;;;;;;;;;;5074512;28;20416;-83
2023/03/14 07:11:55;;;;;;;3.77;1.03;;;;;;;;;;5074708;28;20413;-86
2023/03/14 07:14:21;;;;;;;4.27;0.80;;;;;;;;;;5074115;28;20413;-86
2023/03/14 07:16:47;;;;;;;4.57;0.90;;;;;;;;;;5074759;28;20767;-86
2023/03/14 07:19:13;;;;;;;5.00;1.20;;;;;;;;;;5074593;28;20953;-84
2023/03/14 07:21:39;;;;;;;2.80;0.87;;;;;;;;;;5073353;28;20958;-84
2023/03/14 07:24:05;;;;;;;3.80;1.10;;;;;;;;;;5072847;28;20210;-84
2023/03/14 07:26:31;;;;;;;3.03;0.67;;;;;;;;;;5074427;28;20409;-86
2023/03/14 07:28:57;;;;;;;3.00;0.90;;;;;;;;;;5074677;28;20932;-87
2023/03/14 07:31:23;;;;;;;4.40;1.20;;;;;;;;;;5074472;28;20765;-83
2023/03/14 07:33:49;;;;;;;1.33;0.40;;;;;;;;;;5074346;28;20410;-88
2023/03/14 07:36:15;;;;;;;2.40;0.43;;;;;;;;;;5033517;28;20426;-86
2023/03/14 07:38:41;;;;;;;2.40;0.57;;;;;;;;;;5073680;28;20177;-82
2023/03/14 07:41:07;;;;;;;1.90;0.20;;;;;;;;;;5072978;28;20422;-85
2023/03/14 07:43:34;;;;;;;5.47;0.73;;;;;;;;;;5072916;28;20477;-86
2023/03/14 07:46:03;;;;;;;1.93;0.40;;;;;;;;;;5072849;28;20562;-79
2023/03/14 07:48:29;;;;;;;1.80;0.30;;;;;;;;;;5073957;28;20420;-82
2023/03/14 07:50:55;;;;;;;2.17;0.43;;;;;;;;;;5072703;28;20417;-83
2023/03/14 07:53:22;;;;;;;2.57;0.30;;;;;;;;;;5072751;28;20423;-84
2023/03/14 07:55:48;;;;;;;1.30;0.43;;;;;;;;;;5072054;28;20412;-83
2023/03/14 07:58:14;;;;;;;2.47;1.30;;;;;;;;;;5073935;28;20425;-84
2023/03/14 08:00:41;;;;;;;1.77;0.33;;;;;;;;;;5072580;28;20485;-86
2023/03/14 08:03:07;;;;;;;1.27;0.30;;;;;;;;;;5077112;28;20562;-87
2023/03/14 08:05:36;;;;;;;2.07;0.67;;;;;;;;;;5075190;28;20506;-88
2023/03/14 08:08:02;;;;;;;1.73;0.67;;;;;;;;;;5073769;28;20813;-83
2023/03/14 08:10:28;;;;;;;1.50;0.40;;;;;;;;;;5073327;28;20516;-87
2023/03/14 08:12:56;;;;;;;4.93;1.50;;;;;;;;;;5073911;28;20820;-90
2023/03/14 08:15:22;;;;;;;2.77;1.10;;;;;;;;;;5073372;28;20195;-85
2023/03/14 08:17:50;;;;;;;2.70;1.13;;;;;;;;;;5073161;28;20419;-82
2023/03/14 08:20:17;;;;;;;4.03;1.53;;;;;;;;;;5070200;28;20423;-85
2023/03/14 08:22:43;;;;;;;4.80;0.93;;;;;;;;;;5072976;28;20969;-80
2023/03/14 08:25:09;;;;;;;4.03;1.63;;;;;;;;;;5072987;28;20621;-78
2023/03/14 08:27:37;;;;;;;4.10;1.10;;;;;;;;;;5073349;28;20423;-82
2023/03/14 08:30:04;;;;;;;2.10;1.03;;;;;;;;;;5073540;28;20465;-84
2023/03/14 08:32:30;;;;;;;2.63;0.90;;;;;;;;;;5073370;28;20773;-81
2023/03/14 08:34:56;;;;;;;3.77;1.40;;;;;;;;;;5073306;28;20403;-81
2023/03/14 08:37:24;;;;;;;7.20;1.47;;;;;;;;;;5012691;28;20515;-81
2023/03/14 08:40:11;;;;;;;4.57;1.90;;;;;;;;;;5053003;28;20454;-88
2023/03/14 08:42:38;;;;;;;8.03;2.33;;;;;;;;;;5053464;28;20454;-84
2023/03/14 08:45:04;;;;;;;4.43;1.70;;;;;;;;;;5053266;28;20505;-87
2023/03/14 08:47:30;;;;;;;6.17;2.83;;;;;;;;;;5053804;28;20812;-87
2023/03/14 08:49:56;;;;;;;5.90;2.40;;;;;;;;;;5053145;28;20459;-89
2023/03/14 08:52:22;;;;;;;7.13;3.80;;;;;;;;;;5053315;28;20443;-90
2023/03/14 08:54:48;;;;;;;4.73;2.87;;;;;;;;;;5052638;28;20892;-85
2023/03/14 08:57:14;;;;;;;5.30;2.17;;;;;;;;;;5053298;28;20416;-89
2023/03/14 08:59:40;;;;;;;3.17;2.37;;;;;;;;;;5064831;28;20415;-88
2023/03/14 09:02:06;;;;;;;9.33;3.00;;;;;;;;;;5071724;28;20466;-86
2023/03/14 09:04:33;;;;;;;6.93;2.57;;;;;;;;;;5073316;28;20410;-88
2023/03/14 09:06:59;;;;;;;5.80;2.63;;;;;;;;;;5072953;28;20917;-83
2023/03/14 09:09:27;;;;;;;5.83;2.30;;;;;;;;;;5072191;28;20420;-89
2023/03/14 09:11:53;;;;;;;11.23;2.43;;;;;;;;;;5073084;28;20411;-87
2023/03/14 09:14:18;;;;;;;3.70;2.20;;;;;;;;;;5072884;28;20467;-88
2023/03/14 09:16:44;;;;;;;7.00;2.57;;;;;;;;;;5072987;28;20798;-88
2023/03/14 09:19:11;;;;;;;3.70;2.00;;;;;;;;;;5071692;28;20470;-90
2023/03/14 09:21:38;;;;;;;6.63;2.80;;;;;;;;;;5071767;28;20826;-85
2023/03/14 09:24:04;;;;;;;2.40;1.03;;;;;;;;;;5072381;28;20652;-88
2023/03/14 09:26:30;;;;;;;4.83;1.67;;;;;;;;;;5071683;28;20469;-88
2023/03/14 09:28:56;;;;;;;6.20;2.30;;;;;;;;;;5072876;28;20415;-88
2023/03/14 09:31:22;;;;;;;2.70;1.43;;;;;;;;;;5071737;28;20820;-89
2023/03/14 09:33:48;;;;;;;6.63;2.10;;;;;;;;;;5076574;28;20418;-83
2023/03/14 09:36:14;;;;;;;7.20;1.37;;;;;;;;;;5022958;28;20185;-87
2023/03/14 09:38:40;;;;;;;2.30;1.67;;;;;;;;;;5052525;28;20439;-80
2023/03/14 09:41:16;;;;;;;2.50;0.93;;;;;;;;;;5062031;28;20615;-83
2023/03/14 09:43:42;;;;;;;5.77;2.23;;;;;;;;;;5071138;28;20508;-86
2023/03/14 09:46:10;;;;;;;6.73;2.17;;;;;;;;;;5052097;28;20412;-85
2023/03/14 09:48:36;;;;;;;6.63;1.50;;;;;;;;;;5052062;28;20408;-83
2023/03/14 09:51:05;;;;;;;4.37;1.40;;;;;;;;;;5052054;28;20408;-85
2023/03/14 09:53:40;;;;;;;5.83;1.50;;;;;;;;;;5051556;28;20408;-85
2023/03/14 09:56:12;;;;;;;2.93;1.67;;;;;;;;;;5051999;28;20463;-86
2023/03/14 09:58:40;;;;;;;6.10;1.23;;;;;;;;;;5068265;28;20411;-81
2023/03/14 10:01:10;;;;;;;6.43;1.30;;;;;;;;;;5070830;28;20804;-83
2023/03/14 10:03:36;;;;;;;4.33;2.20;;;;;;;;;;5070435;28;20486;-82
2023/03/14 10:06:02;;;;;;;4.10;2.17;;;;;;;;;;5071885;28;20409;-81
2023/03/14 10:08:28;;;;;;;5.90;1.97;;;;;;;;;;5070566;28;20414;-83
2023/03/14 10:10:55;;;;;;;7.10;1.67;;;;;;;;;;5070439;28;20414;-86
2023/03/14 10:13:26;;;;;;;5.43;2.10;;;;;;;;;;5070076;28;20443;-82
2023/03/14 10:15:53;;;;;;;2.33;0.30;;;;;;;;;;5069996;28;20422;-84
2023/03/14 10:18:19;;;;;;;3.40;0.30;;;;;;;;;;5071552;28;20461;-81
2023/03/14 10:20:46;;;;;;;0.50;0.20;;;;;;;;;;5075169;28;20409;-81
2023/03/14 10:23:12;;;;;;;1.23;0.23;;;;;;;;;;5074940;28;20459;-82
2023/03/14 10:25:42;;;;;;;0.53;0.20;;;;;;;;;;5075162;28;20404;-83
2023/03/14 10:28:23;;;;;;;0.80;0.30;;;;;;;;;;5074944;28;20184;-82
2023/03/14 10:30:49;;;;;;;2.07;0.20;;;;;;;;;;5075302;28;20505;-83
2023/03/14 10:33:17;;;;;;;2.50;0.33;;;;;;;;;;5075048;28;20502;-83
2023/03/14 10:35:43;;;;;;;2.67;0.20;;;;;;;;;;5032338;28;20453;-79
2023/03/14 10:38:14;;;;;;;1.30;0.30;;;;;;;;;;5070684;28;20498;-79
2023/03/14 10:40:41;;;;;;;2.80;0.70;;;;;;;;;;5073554;28;20423;-83
2023/03/14 10:43:14;;;;;;;1.50;0.30;;;;;;;;;;5071728;28;20562;-85
2023/03/14 10:45:45;;;;;;;3.03;0.30;;;;;;;;;;5073104;28;20938;-85
2023/03/14 10:48:17;;;;;;;2.10;0.53;;;;;;;;;;5072955;28;20421;-83
2023/03/14 10:51:03;;;;;;;1.53;0.20;;;;;;;;;;5072501;28;21094;-78
2023/03/14 10:53:48;;;;;;;1.53;0.20;;;;;;;;;;5073574;28;20473;-82
2023/03/14 10:56:15;;;;;;;0.53;0.20;;;;;;;;;;5066568;28;20428;-79
2023/03/14 10:58:44;;;;;;;0.93;0.20;;;;;;;;;;5053645;28;20583;-80
2023/03/14 11:01:10;;;;;;;0.40;0.23;;;;;;;;;;5055154;28;20997;-79
2023/03/14 11:03:37;;;;;;;0.60;0.20;;;;;;;;;;5053943;28;20574;-80
2023/03/14 11:06:12;;;;;;;0.40;0.20;;;;;;;;;;5053740;28;20173;-81
2023/03/14 11:08:48;;;;;;;1.33;0.20;;;;;;;;;;5053325;28;20756;-83
2023/03/14 11:11:18;;;;;;;0.87;0.20;;;;;;;;;;5065571;28;20425;-81
2023/03/14 11:13:52;;;;;;;0.30;0.20;;;;;;;;;;5072420;28;20412;-80
2023/03/14 11:16:34;;;;;;;0.83;0.20;;;;;;;;;;5073439;28;20453;-78
2023/03/14 11:19:04;;;;;;;0.40;0.30;;;;;;;;;;5072544;28;20472;-78
2023/03/14 11:21:38;;;;;;;1.17;0.30;;;;;;;;;;5073193;28;20421;-76
2023/03/14 11:24:04;;;;;;;0.60;0.20;;;;;;;;;;5072940;28;21002;-77
2023/03/14 11:26:48;;;;;;;0.80;0.20;;;;;;;;;;5074482;28;20412;-77
2023/03/14 11:29:28;;;;;;;2.23;0.57;;;;;;;;;;5072476;28;20175;-77
2023/03/14 11:31:56;;;;;;;2.00;0.20;;;;;;;;;;5069659;28;20435;-77
2023/03/14 11:34:26;;;;;;;0.63;0.50;;;;;;;;;;5054481;28;20512;-79
2023/03/14 11:36:56;;;;;;;1.73;0.20;;;;;;;;;;5057301;28;20492;-77
2023/03/14 11:39:24;;;;;;;1.70;1.17;;;;;;;;;;5064782;28;20488;-78
2023/03/14 11:41:52;;;;;;;0.50;0.30;;;;;;;;;;5073414;28;20874;-76
2023/03/14 11:44:20;;;;;;;0.70;0.20;;;;;;;;;;5072832;28;20436;-77
2023/03/14 11:46:51;;;;;;;0.70;0.40;;;;;;;;;;5072885;28;20440;-78
2023/03/14 11:49:32;;;;;;;2.40;0.97;;;;;;;;;;5074208;28;20767;-77
2023/03/14 11:52:03;;;;;;;0.47;0.20;;;;;;;;;;5073890;28;20621;-77
2023/03/14 11:54:46;;;;;;;2.13;0.93;;;;;;;;;;5073536;28;20488;-77
2023/03/14 11:57:14;;;;;;;1.33;0.40;;;;;;;;;;5073886;28;20407;-77
2023/03/14 11:59:46;;;;;;;1.70;0.67;;;;;;;;;;5070992;28;20412;-81
2023/03/14 12:02:15;;;;;;;2.20;0.20;;;;;;;;;;5071116;28;20796;-85
2023/03/14 12:04:46;;;;;;;1.17;0.20;;;;;;;;;;5069865;28;20970;-79
2023/03/14 12:07:21;;;;;;;1.47;0.20;;;;;;;;;;5072517;28;20405;-84
2023/03/14 12:09:48;;;;;;;0.90;0.40;;;;;;;;;;5071101;28;20431;-82
2023/03/14 12:12:19;;;;;;;2.20;0.33;;;;;;;;;;5072414;28;20849;-84
2023/03/14 12:14:47;;;;;;;3.03;0.30;;;;;;;;;;5054092;28;20412;-81
2023/03/14 12:17:13;;;;;;;0.77;0.30;;;;;;;;;;5031731;28;20410;-84
2023/03/14 12:19:40;;;;;;;2.07;0.30;;;;;;;;;;5052079;28;20467;-86
2023/03/14 12:22:09;;;;;;;3.03;1.10;;;;;;;;;;5069954;28;20685;-85
2023/03/14 12:24:36;;;;;;;1.30;0.43;;;;;;;;;;5071945;28;20874;-84
2023/03/14 12:27:03;;;;;;;3.20;0.40;;;;;;;;;;5071926;28;20409;-84
2023/03/14 12:29:30;;;;;;;2.90;0.50;;;;;;;;;;5071124;28;20421;-82
2023/03/14 12:32:21;;;;;;;1.70;0.33;;;;;;;;;;5071942;28;20873;-82
2023/03/14 12:34:47;;;;;;;4.53;0.47;;;;;;;;;;5071445;28;20421;-83
2023/03/14 12:37:20;;;;;;;1.23;0.30;;;;;;;;;;5071425;28;20436;-80
2023/03/14 12:40:11;;;;;;;4.40;0.47;;;;;;;;;;5070506;28;20424;-80
2023/03/14 12:42:45;;;;;;;3.80;0.53;;;;;;;;;;5069516;28;20831;-80
2023/03/14 12:45:30;;;;;;;2.00;0.40;;;;;;;;;;5070086;28;20474;-80
2023/03/14 12:48:01;;;;;;;7.00;0.70;;;;;;;;;;5071707;28;20412;-81
2023/03/14 12:50:32;;;;;;;6.70;1.03;;;;;;;;;;5070196;28;20519;-81
2023/03/14 12:52:58;;;;;;;0.50;0.30;;;;;;;;;;5071403;28;20499;-80
2023/03/14 12:55:34;;;;;;;8.90;1.27;;;;;;;;;;5071664;28;20445;-83
2023/03/14 12:58:14;;;;;;;3.80;0.83;;;;;;;;;;5071833;28;20234;-83
2023/03/14 13:00:41;;;;;;;5.50;0.50;;;;;;;;;;5070269;28;20419;-81
2023/03/14 13:03:16;;;;;;;2.17;0.50;;;;;;;;;;5071468;28;20473;-83
2023/03/14 13:05:53;;;;;;;3.50;1.43;;;;;;;;;;5070423;28;20412;-82
2023/03/14 13:08:38;;;;;;;12.77;1.07;;;;;;;;;;5069874;28;20519;-82
2023/03/14 13:11:06;;;;;;;16.10;2.00;;;;;;;;;;5070283;28;20415;-83
2023/03/14 13:13:34;;;;;;;8.60;1.03;;;;;;;;;;5071308;28;20446;-83
2023/03/14 13:16:04;;;;;;;5.63;0.50;;;;;;;;;;5021088;28;20768;-80
2023/03/14 13:18:40;;;;;;;4.83;1.30;;;;;;;;;;5050194;28;20574;-77
2023/03/14 13:21:19;;;;;;;4.10;0.90;;;;;;;;;;5050987;28;20429;-77
2023/03/14 13:23:59;;;;;;;5.90;1.23;;;;;;;;;;5051280;28;20470;-76
2023/03/14 13:26:32;;;;;;;5.80;0.77;;;;;;;;;;5051804;28;20409;-76
2023/03/14 13:28:58;;;;;;;7.13;1.00;;;;;;;;;;5051009;28;20409;-76
2023/03/14 13:31:25;;;;;;;1.83;0.80;;;;;;;;;;5051008;28;20828;-76
2023/03/14 13:33:58;;;;;;;3.37;0.87;;;;;;;;;;5054510;28;20468;-78
2023/03/14 13:36:24;;;;;;;6.23;0.53;;;;;;;;;;5071967;28;20447;-77
2023/03/14 13:38:56;;;;;;;7.67;0.93;;;;;;;;;;5069618;28;20800;-76
2023/03/14 13:41:24;;;;;;;7.20;0.90;;;;;;;;;;5071638;28;20413;-76
2023/03/14 13:43:50;;;;;;;4.50;0.77;;;;;;;;;;5070689;28;20479;-76
2023/03/14 13:46:17;;;;;;;9.00;1.23;;;;;;;;;;5072581;28;20408;-76
2023/03/14 13:49:09;;;;;;;2.17;0.43;;;;;;;;;;5071927;28;20457;-75
2023/03/14 13:51:35;;;;;;;7.30;0.80;;;;;;;;;;5070056;28;20424;-76
2023/03/14 13:54:03;;;;;;;4.27;0.37;;;;;;;;;;5073038;28;20406;-76
2023/03/14 13:56:30;;;;;;;6.97;1.40;;;;;;;;;;5075797;28;20406;-76
2023/03/14 13:58:56;;;;;;;4.53;0.60;;;;;;;;;;5075169;28;20491;-77
2023/03/14 14:01:32;;;;;;;5.73;0.60;;;;;;;;;;5076038;28;20457;-76
2023/03/14 14:03:58;;;;;;;4.70;1.03;;;;;;;;;;5075065;28;20476;-77
2023/03/14 14:06:35;;;;;;;4.77;0.57;;;;;;;;;;5074792;28;20929;-79
2023/03/14 14:09:03;;;;;;;6.13;0.97;;;;;;;;;;5075603;28;20409;-78
2023/03/14 14:11:36;;;;;;;2.30;0.40;;;;;;;;;;5075852;28;20430;-79
2023/03/14 14:14:03;;;;;;;3.87;0.43;;;;;;;;;;5074434;28;20426;-81
2023/03/14 14:16:30;;;;;;;5.00;0.47;;;;;;;;;;5074553;28;20414;-77
2023/03/14 14:18:56;;;;;;;8.77;1.53;;;;;;;;;;5014767;28;20902;-77
2023/03/14 14:21:25;;;;;;;6.20;0.27;;;;;;;;;;5055643;28;20408;-76
2023/03/14 14:23:52;;;;;;;4.00;0.63;;;;;;;;;;5055248;28;20473;-77
2023/03/14 14:26:19;;;;;;;7.20;0.80;;;;;;;;;;5055594;28;20410;-76
2023/03/14 14:28:45;;;;;;;8.73;0.60;;;;;;;;;;5055678;28;20417;-75
2023/03/14 14:31:14;;;;;;;5.17;0.80;;;;;;;;;;5055695;28;20478;-76
2023/03/14 14:33:44;;;;;;;5.97;0.50;;;;;;;;;;5055581;28;20422;-76
2023/03/14 14:36:22;;;;;;;4.30;0.60;;;;;;;;;;5054261;28;20431;-76
2023/03/14 14:38:57;;;;;;;9.57;1.67;;;;;;;;;;5053778;28;20441;-80
2023/03/14 14:41:27;;;;;;;2.20;0.37;;;;;;;;;;5055195;28;20498;-77
2023/03/14 14:43:53;;;;;;;4.73;0.90;;;;;;;;;;5055343;28;20897;-77
2023/03/14 14:46:20;;;;;;;3.53;0.93;;;;;;;;;;5055282;28;20409;-76
2023/03/14 14:48:49;;;;;;;4.37;0.83;;;;;;;;;;5055280;28;20422;-76